createdAt,value
2023-01-27T00:00:33.832Z,6.78
2023-01-27T00:03:00.362Z,6.81
2023-01-27T00:05:26.856Z,6.80
2023-01-27T00:07:53.250Z,6.81
2023-01-27T00:10:21.110Z,6.80
2023-01-27T00:13:06.603Z,6.86
2023-01-27T00:15:34.178Z,6.87
2023-01-27T00:18:01.417Z,6.87
2023-01-27T00:20:46.788Z,6.83
2023-01-27T00:23:37.951Z,6.75
2023-01-27T00:26:06.981Z,6.82
2023-01-27T00:28:34.736Z,6.76
2023-01-27T00:31:01.565Z,6.82
2023-01-27T00:33:29.305Z,6.81
2023-01-27T00:36:07.035Z,6.70
2023-01-27T00:38:40.749Z,6.82
2023-01-27T00:41:20.056Z,6.81
2023-01-27T00:43:47.911Z,6.84
2023-01-27T00:46:15.432Z,6.76
2023-01-27T00:48:42.060Z,6.67
2023-01-27T00:51:08.707Z,6.81
2023-01-27T00:53:35.825Z,6.83
2023-01-27T00:56:02.395Z,6.83
2023-01-27T00:58:29.531Z,6.68
2023-01-27T01:01:01.349Z,6.82
2023-01-27T01:03:31.920Z,6.83
2023-01-27T01:05:59.814Z,6.82
2023-01-27T01:08:26.856Z,6.82
2023-01-27T01:10:53.299Z,6.85
2023-01-27T01:13:21.639Z,6.87
2023-01-27T01:15:48.343Z,6.88
2023-01-27T01:18:16.310Z,6.89
2023-01-27T01:20:45.341Z,6.91
2023-01-27T01:23:12.995Z,6.93
2023-01-27T01:25:39.597Z,6.91
2023-01-27T01:28:07.522Z,6.89
2023-01-27T01:30:35.782Z,6.82
2023-01-27T01:33:03.050Z,6.90
2023-01-27T01:35:29.601Z,6.90
2023-01-27T01:37:56.077Z,6.88
2023-01-27T01:40:25.602Z,6.84
2023-01-27T01:42:54.069Z,6.86
2023-01-27T01:45:33.390Z,6.86
2023-01-27T01:48:03.141Z,6.84
2023-01-27T01:50:30.530Z,6.83
2023-01-27T01:52:58.983Z,6.81
2023-01-27T01:55:25.562Z,6.79
2023-01-27T01:57:52.098Z,6.73
2023-01-27T02:00:18.912Z,6.74
2023-01-27T02:02:48.519Z,6.72
2023-01-27T02:05:26.677Z,6.66
2023-01-27T02:08:05.108Z,6.67
2023-01-27T02:10:33.389Z,6.56
2023-01-27T02:12:59.869Z,6.60
2023-01-27T02:15:26.679Z,6.61
2023-01-27T02:17:53.117Z,6.52
2023-01-27T02:20:36.525Z,6.59
2023-01-27T02:23:23.229Z,6.60
2023-01-27T02:26:11.374Z,6.60
2023-01-27T02:28:37.800Z,6.49
2023-01-27T02:31:04.564Z,6.48
2023-01-27T02:33:31.004Z,6.49
2023-01-27T02:36:05.986Z,6.52
2023-01-27T02:38:40.101Z,6.55
2023-01-27T02:41:14.347Z,6.55
2023-01-27T02:43:40.841Z,6.53
2023-01-27T02:46:07.372Z,6.52
2023-01-27T02:48:33.955Z,6.55
2023-01-27T02:51:00.723Z,6.53
2023-01-27T02:53:27.197Z,6.41
2023-01-27T02:55:53.630Z,6.41
2023-01-27T02:58:20.044Z,6.48
2023-01-27T03:00:46.782Z,6.49
2023-01-27T03:03:13.193Z,6.42
2023-01-27T03:05:40.178Z,6.46
2023-01-27T03:08:06.818Z,6.38
2023-01-27T03:10:33.208Z,6.41
2023-01-27T03:12:59.619Z,6.41
2023-01-27T03:15:44.350Z,6.40
2023-01-27T03:18:12.619Z,6.38
2023-01-27T03:20:40.791Z,6.34
2023-01-27T03:23:07.465Z,6.26
2023-01-27T03:25:33.979Z,6.23
2023-01-27T03:28:00.711Z,6.25
2023-01-27T03:30:30.420Z,6.26
2023-01-27T03:32:58.434Z,6.24
2023-01-27T03:35:34.286Z,6.24
2023-01-27T03:38:20.007Z,6.18
2023-01-27T03:41:05.451Z,6.03
2023-01-27T03:43:50.722Z,6.16
2023-01-27T03:46:19.820Z,6.17
2023-01-27T03:48:55.015Z,6.20
2023-01-27T03:51:24.189Z,6.03
2023-01-27T03:53:51.127Z,6.18
2023-01-27T03:56:20.206Z,6.19
2023-01-27T03:58:48.796Z,6.20
2023-01-27T04:01:23.381Z,6.22
2023-01-27T04:04:09.304Z,6.18
2023-01-27T04:07:00.731Z,6.21
2023-01-27T04:09:29.862Z,6.18
2023-01-27T04:11:59.680Z,6.18
2023-01-27T04:14:35.532Z,6.19
2023-01-27T04:17:05.941Z,6.07
2023-01-27T04:19:32.651Z,6.20
2023-01-27T04:22:00.699Z,6.23
2023-01-27T04:24:27.275Z,6.23
2023-01-27T04:26:58.401Z,6.22
2023-01-27T04:29:36.132Z,6.21
2023-01-27T04:32:05.955Z,6.19
2023-01-27T04:34:32.913Z,6.00
2023-01-27T04:36:59.797Z,6.17
2023-01-27T04:39:28.967Z,6.18
2023-01-27T04:41:56.501Z,6.19
2023-01-27T04:44:23.773Z,6.19
2023-01-27T04:46:50.757Z,6.14
2023-01-27T04:49:17.781Z,6.20
2023-01-27T04:51:46.221Z,6.18
2023-01-27T04:54:13.414Z,6.13
2023-01-27T04:56:47.165Z,6.19
2023-01-27T04:59:15.602Z,6.17
2023-01-27T05:01:42.030Z,6.18
2023-01-27T05:04:08.580Z,6.11
2023-01-27T05:06:35.083Z,6.14
2023-01-27T05:09:02.524Z,6.02
2023-01-27T05:11:29.080Z,6.13
2023-01-27T05:13:55.511Z,6.15
2023-01-27T05:16:23.896Z,6.15
2023-01-27T05:18:52.576Z,6.14
2023-01-27T05:21:21.745Z,6.09
2023-01-27T05:23:49.038Z,6.11
2023-01-27T05:26:21.583Z,6.13
2023-01-27T05:28:49.695Z,6.14
2023-01-27T05:31:18.603Z,6.15
2023-01-27T05:33:46.387Z,6.12
2023-01-27T05:36:15.016Z,6.08
2023-01-27T05:38:41.957Z,6.07
2023-01-27T05:41:10.263Z,6.08
2023-01-27T05:43:39.956Z,6.07
2023-01-27T05:46:07.764Z,6.02
2023-01-27T05:48:40.353Z,5.98
2023-01-27T05:51:07.679Z,5.93
2023-01-27T05:53:35.310Z,5.90
2023-01-27T05:56:02.628Z,5.78
2023-01-27T05:58:29.098Z,5.80
2023-01-27T06:00:55.805Z,5.87
2023-01-27T06:03:22.967Z,5.85
2023-01-27T06:05:51.562Z,5.69
2023-01-27T06:08:18.149Z,5.83
2023-01-27T06:10:44.725Z,5.81
2023-01-27T06:13:13.338Z,5.79
2023-01-27T06:15:41.556Z,5.79
2023-01-27T06:18:08.032Z,5.80
2023-01-27T06:20:34.446Z,5.77
2023-01-27T06:23:01.874Z,5.78
2023-01-27T06:25:28.260Z,5.68
2023-01-27T06:27:55.579Z,5.74
2023-01-27T06:30:22.430Z,5.74
2023-01-27T06:32:48.885Z,5.74
2023-01-27T06:35:15.694Z,5.58
2023-01-27T06:37:45.465Z,5.75
2023-01-27T06:40:12.502Z,5.76
2023-01-27T06:42:42.519Z,5.79
2023-01-27T06:45:09.575Z,5.80
2023-01-27T06:47:35.934Z,5.76
2023-01-27T06:50:02.421Z,5.77
2023-01-27T06:52:28.818Z,5.74
2023-01-27T06:54:55.194Z,5.72
2023-01-27T06:57:21.599Z,5.69
2023-01-27T06:59:48.129Z,5.66
2023-01-27T07:02:14.751Z,5.56
2023-01-27T07:04:41.222Z,5.63
2023-01-27T07:07:07.646Z,5.60
2023-01-27T07:09:50.606Z,5.47
2023-01-27T07:12:18.377Z,5.57
2023-01-27T07:14:44.830Z,5.55
2023-01-27T07:17:11.207Z,5.46
2023-01-27T07:19:37.676Z,5.51
2023-01-27T07:22:04.206Z,5.52
2023-01-27T07:24:30.601Z,5.52
2023-01-27T07:26:56.995Z,5.54
2023-01-27T07:29:23.589Z,5.53
2023-01-27T07:31:50.110Z,5.54
2023-01-27T07:34:16.578Z,5.54
2023-01-27T07:36:43.033Z,5.49
2023-01-27T07:39:09.479Z,5.54
2023-01-27T07:41:35.903Z,5.54
2023-01-27T07:44:02.483Z,5.52
2023-01-27T07:46:28.963Z,5.57
2023-01-27T07:48:55.436Z,5.53
2023-01-27T07:51:21.860Z,5.54
2023-01-27T07:53:48.338Z,5.52
2023-01-27T07:56:14.788Z,5.55
2023-01-27T07:58:42.376Z,5.55
2023-01-27T08:01:11.150Z,5.55
2023-01-27T08:03:38.513Z,5.38
2023-01-27T08:06:10.243Z,5.55
2023-01-27T08:08:38.147Z,5.55
2023-01-27T08:11:10.597Z,5.58
2023-01-27T08:13:37.248Z,5.57
2023-01-27T08:16:11.765Z,5.58
2023-01-27T08:18:38.467Z,5.61
2023-01-27T08:21:07.666Z,5.60
2023-01-27T08:23:34.358Z,5.61
2023-01-27T08:26:02.488Z,5.66
2023-01-27T08:28:31.449Z,5.64
2023-01-27T08:31:06.272Z,5.69
2023-01-27T08:33:32.868Z,5.67
2023-01-27T08:36:08.244Z,5.70
2023-01-27T08:38:35.062Z,5.71
2023-01-27T08:41:07.871Z,5.72
2023-01-27T08:43:34.970Z,5.59
2023-01-27T08:46:02.101Z,5.69
2023-01-27T08:48:29.286Z,5.72
2023-01-27T08:50:56.268Z,5.73
2023-01-27T08:53:24.436Z,5.72
2023-01-27T08:55:51.730Z,5.73
2023-01-27T08:58:18.273Z,5.71
2023-01-27T09:00:45.023Z,5.74
2023-01-27T09:03:11.586Z,5.75
2023-01-27T09:05:38.263Z,5.79
2023-01-27T09:08:05.466Z,5.77
2023-01-27T09:10:32.052Z,5.73
2023-01-27T09:12:58.492Z,5.73
2023-01-27T09:15:24.873Z,5.69
2023-01-27T09:17:51.374Z,5.65
2023-01-27T09:20:18.081Z,5.68
2023-01-27T09:22:44.601Z,5.58
2023-01-27T09:25:16.718Z,5.68
2023-01-27T09:27:44.360Z,5.67
2023-01-27T09:30:13.042Z,5.71
2023-01-27T09:32:40.320Z,5.70
2023-01-27T09:35:07.662Z,5.76
2023-01-27T09:37:42.623Z,5.75
2023-01-27T09:40:31.352Z,5.79
2023-01-27T09:43:19.167Z,5.79
2023-01-27T09:46:19.573Z,5.81
2023-01-27T09:49:00.916Z,5.82
2023-01-27T09:51:49.022Z,5.85
2023-01-27T09:54:48.316Z,5.91
2023-01-27T09:57:20.425Z,5.93
2023-01-27T09:59:58.911Z,5.91
2023-01-27T10:03:08.023Z,5.97
2023-01-27T10:05:42.247Z,5.92
2023-01-27T10:08:30.831Z,5.97
2023-01-27T10:11:36.997Z,6.04
2023-01-27T10:14:10.809Z,5.94
2023-01-27T10:16:43.421Z,5.79
2023-01-27T10:19:35.153Z,5.99
2023-01-27T10:22:13.813Z,5.99
2023-01-27T10:25:12.935Z,6.00
2023-01-27T10:28:03.853Z,5.89
2023-01-27T10:30:33.940Z,5.95
2023-01-27T10:33:21.021Z,5.96
2023-01-27T10:35:53.460Z,5.92
2023-01-27T10:38:34.997Z,5.91
2023-01-27T10:41:23.251Z,5.90
2023-01-27T10:44:11.712Z,5.82
2023-01-27T10:47:01.193Z,5.90
2023-01-27T10:50:00.097Z,5.91
2023-01-27T10:52:40.904Z,5.89
2023-01-27T10:55:25.584Z,5.79
2023-01-27T10:57:57.875Z,5.88
2023-01-27T11:01:17.707Z,5.87
2023-01-27T11:03:38.350Z,5.81
2023-01-27T11:06:10.172Z,5.83
2023-01-27T11:08:40.702Z,5.67
2023-01-27T11:11:28.507Z,5.74
2023-01-27T11:14:04.643Z,5.82
2023-01-27T11:16:38.806Z,5.83
2023-01-27T11:19:35.654Z,5.83
2023-01-27T11:22:08.147Z,5.83
2023-01-27T11:24:55.727Z,5.84
2023-01-27T11:27:40.912Z,5.83
2023-01-27T11:30:18.256Z,5.86
2023-01-27T11:32:50.636Z,5.86
2023-01-27T11:35:17.248Z,5.89
2023-01-27T11:37:50.435Z,5.87
2023-01-27T11:40:24.653Z,6.00
2023-01-27T11:42:52.085Z,6.03
2023-01-27T11:45:20.680Z,6.09
2023-01-27T11:47:59.340Z,5.97
2023-01-27T11:50:30.092Z,6.09
2023-01-27T11:53:25.619Z,6.16
2023-01-27T11:56:00.627Z,6.15
2023-01-27T11:58:36.106Z,6.11
2023-01-27T12:01:17.884Z,6.09
2023-01-27T12:04:07.449Z,6.10
2023-01-27T12:06:53.471Z,6.03
2023-01-27T12:09:34.315Z,5.97
2023-01-27T12:12:16.038Z,5.99
2023-01-27T12:14:51.016Z,5.97
2023-01-27T12:17:40.189Z,6.04
2023-01-27T12:20:19.097Z,6.06
2023-01-27T12:22:49.342Z,6.05
2023-01-27T12:25:18.624Z,6.19
2023-01-27T12:27:52.671Z,6.05
2023-01-27T12:30:26.151Z,6.08
2023-01-27T12:32:54.069Z,6.18
2023-01-27T12:35:26.032Z,6.21
2023-01-27T12:38:05.189Z,6.21
2023-01-27T12:40:33.627Z,6.19
2023-01-27T12:43:13.619Z,6.20
2023-01-27T12:45:43.172Z,6.18
2023-01-27T12:48:09.652Z,6.16
2023-01-27T12:50:40.170Z,6.10
2023-01-27T12:53:15.529Z,6.15
2023-01-27T12:55:55.796Z,6.11
2023-01-27T12:58:22.104Z,6.24
2023-01-27T13:00:48.650Z,6.10
2023-01-27T13:03:15.252Z,6.09
2023-01-27T13:05:43.297Z,6.18
2023-01-27T13:08:18.641Z,6.18
2023-01-27T13:10:53.157Z,6.15
2023-01-27T13:13:24.590Z,6.13
2023-01-27T13:15:53.837Z,6.06
2023-01-27T13:18:24.084Z,6.05
2023-01-27T13:20:50.375Z,6.14
2023-01-27T13:23:24.312Z,6.05
2023-01-27T13:26:02.411Z,6.03
2023-01-27T13:28:51.164Z,6.08
2023-01-27T13:31:28.130Z,6.13
2023-01-27T13:33:58.064Z,6.19
2023-01-27T13:36:42.054Z,6.24
2023-01-27T13:39:08.441Z,6.23
2023-01-27T13:41:47.607Z,6.29
2023-01-27T13:44:30.357Z,6.34
2023-01-27T13:47:02.807Z,6.32
2023-01-27T13:49:41.064Z,6.35
2023-01-27T13:52:07.729Z,6.36
2023-01-27T13:54:34.342Z,6.33
2023-01-27T13:57:53.138Z,6.41
2023-01-27T14:00:32.137Z,6.35
2023-01-27T14:03:20.710Z,6.43
2023-01-27T14:05:55.214Z,6.41
2023-01-27T14:08:55.824Z,6.48
2023-01-27T14:11:45.482Z,6.46
2023-01-27T14:14:18.380Z,6.52
2023-01-27T14:17:00.479Z,6.55
2023-01-27T14:20:07.322Z,6.59
2023-01-27T14:22:58.768Z,6.59
2023-01-27T14:25:30.934Z,6.57
2023-01-27T14:28:17.380Z,6.46
2023-01-27T14:30:48.693Z,6.45
2023-01-27T14:33:29.436Z,6.55
2023-01-27T14:36:18.895Z,6.46
2023-01-27T14:38:51.059Z,6.55
2023-01-27T14:41:45.686Z,6.55
2023-01-27T14:44:44.033Z,6.51
2023-01-27T14:47:25.399Z,6.44
2023-01-27T14:50:00.645Z,6.33
2023-01-27T14:52:41.829Z,6.13
2023-01-27T14:55:26.971Z,6.13
2023-01-27T14:58:02.131Z,5.93
2023-01-27T15:01:01.008Z,5.78
2023-01-27T15:03:42.781Z,5.62
2023-01-27T15:06:13.477Z,5.47
2023-01-27T15:09:06.291Z,5.41
2023-01-27T15:11:58.725Z,5.31
2023-01-27T15:14:44.887Z,5.22
2023-01-27T15:17:42.120Z,5.15
2023-01-27T15:20:40.692Z,5.10
2023-01-27T15:23:44.471Z,5.06
2023-01-27T15:26:13.095Z,4.94
2023-01-27T15:28:42.557Z,4.93
2023-01-27T15:31:09.470Z,4.92
2023-01-27T15:33:48.288Z,4.91
2023-01-27T15:36:32.741Z,4.88
2023-01-27T15:39:05.727Z,4.85
2023-01-27T15:41:32.611Z,4.81
2023-01-27T15:44:05.453Z,4.75
2023-01-27T15:46:34.786Z,4.79
2023-01-27T15:49:05.021Z,4.77
2023-01-27T15:51:36.403Z,4.73
2023-01-27T15:54:03.927Z,4.75
2023-01-27T15:56:48.911Z,4.74
2023-01-27T15:59:20.609Z,4.70
2023-01-27T16:01:48.425Z,4.67
2023-01-27T16:04:23.325Z,4.57
2023-01-27T16:07:02.841Z,4.65
2023-01-27T16:09:42.863Z,4.59
2023-01-27T16:12:26.868Z,4.60
2023-01-27T16:15:17.829Z,4.59
2023-01-27T16:18:22.029Z,4.54
2023-01-27T16:20:56.736Z,4.54
2023-01-27T16:23:51.215Z,4.55
2023-01-27T16:26:22.566Z,4.54
2023-01-27T16:28:56.388Z,4.54
2023-01-27T16:31:28.101Z,4.53
2023-01-27T16:33:59.677Z,4.52
2023-01-27T16:36:36.426Z,4.49
2023-01-27T16:39:18.413Z,4.50
2023-01-27T16:41:55.478Z,4.41
2023-01-27T16:44:32.589Z,4.39
2023-01-27T16:47:15.062Z,4.37
2023-01-27T16:49:43.044Z,4.34
2023-01-27T16:52:32.464Z,4.33
2023-01-27T16:55:06.275Z,4.31
2023-01-27T16:57:45.336Z,4.30
2023-01-27T17:00:34.300Z,4.14
2023-01-27T17:03:08.040Z,4.25
2023-01-27T17:05:35.300Z,4.24
2023-01-27T17:08:20.118Z,4.27
2023-01-27T17:11:27.950Z,4.30
2023-01-27T17:13:58.466Z,4.29
2023-01-27T17:16:29.244Z,4.27
2023-01-27T17:19:02.651Z,4.24
2023-01-27T17:21:35.067Z,4.28
2023-01-27T17:24:14.470Z,4.17
2023-01-27T17:26:45.332Z,4.32
2023-01-27T17:29:18.749Z,4.33
2023-01-27T17:31:45.349Z,4.34
2023-01-27T17:34:20.788Z,4.35
2023-01-27T17:37:05.614Z,4.40
2023-01-27T17:39:32.420Z,4.36
2023-01-27T17:42:01.144Z,4.38
2023-01-27T17:44:27.801Z,4.37
2023-01-27T17:46:54.310Z,4.26
2023-01-27T17:49:20.754Z,4.41
2023-01-27T17:51:51.475Z,4.41
2023-01-27T17:54:35.140Z,4.46
2023-01-27T17:57:15.616Z,4.43
2023-01-27T17:59:46.839Z,4.41
2023-01-27T18:02:21.805Z,4.46
2023-01-27T18:04:49.017Z,4.43
2023-01-27T18:07:15.573Z,4.44
2023-01-27T18:09:51.587Z,4.43
2023-01-27T18:12:36.234Z,4.49
2023-01-27T18:15:37.071Z,4.47
2023-01-27T18:18:08.020Z,4.45
2023-01-27T18:20:36.230Z,4.47
2023-01-27T18:23:14.510Z,4.48
2023-01-27T18:25:51.348Z,4.48
2023-01-27T18:28:18.162Z,4.44
2023-01-27T18:30:50.331Z,4.53
2023-01-27T18:33:17.889Z,4.52
2023-01-27T18:35:55.407Z,4.55
2023-01-27T18:38:24.696Z,4.50
2023-01-27T18:40:51.184Z,4.54
2023-01-27T18:43:17.668Z,4.40
2023-01-27T18:45:44.710Z,4.54
2023-01-27T18:48:14.091Z,4.54
2023-01-27T18:50:46.123Z,4.57
2023-01-27T18:53:17.629Z,4.57
2023-01-27T18:55:44.276Z,4.58
2023-01-27T18:58:13.549Z,4.58
2023-01-27T19:00:43.224Z,4.59
2023-01-27T19:03:17.820Z,4.60
2023-01-27T19:05:45.052Z,4.57
2023-01-27T19:08:16.350Z,4.57
2023-01-27T19:10:42.863Z,4.59
2023-01-27T19:13:11.060Z,4.59
2023-01-27T19:15:50.126Z,4.62
2023-01-27T19:18:24.990Z,4.64
2023-01-27T19:20:52.547Z,4.61
2023-01-27T19:23:20.543Z,4.63
2023-01-27T19:25:50.024Z,4.63
2023-01-27T19:28:28.995Z,4.64
2023-01-27T19:30:55.933Z,4.62
2023-01-27T19:33:24.251Z,4.59
2023-01-27T19:36:20.823Z,4.65
2023-01-27T19:38:48.391Z,4.47
2023-01-27T19:41:15.640Z,4.59
2023-01-27T19:43:42.077Z,4.58
2023-01-27T19:46:17.091Z,4.62
2023-01-27T19:48:43.600Z,4.61
2023-01-27T19:51:11.758Z,4.59
2023-01-27T19:53:38.568Z,4.42
2023-01-27T19:56:13.807Z,4.58
2023-01-27T19:58:40.967Z,4.58
2023-01-27T20:01:09.527Z,4.56
2023-01-27T20:03:36.049Z,4.54
2023-01-27T20:06:02.799Z,4.46
2023-01-27T20:08:29.179Z,4.50
2023-01-27T20:10:55.591Z,4.49
2023-01-27T20:13:22.010Z,4.47
2023-01-27T20:15:48.469Z,4.45
2023-01-27T20:18:16.629Z,4.43
2023-01-27T20:20:44.299Z,4.42
2023-01-27T20:23:15.408Z,4.40
2023-01-27T20:25:41.843Z,4.39
2023-01-27T20:28:10.030Z,4.37
2023-01-27T20:30:36.909Z,4.34
2023-01-27T20:33:04.524Z,4.30
2023-01-27T20:35:31.397Z,4.29
2023-01-27T20:37:57.961Z,4.27
2023-01-27T20:40:26.948Z,4.18
2023-01-27T20:42:54.089Z,4.05
2023-01-27T20:45:21.642Z,4.14
2023-01-27T20:47:52.725Z,4.12
2023-01-27T20:50:20.730Z,4.04
2023-01-27T20:52:50.973Z,3.98
2023-01-27T20:55:19.408Z,3.91
2023-01-27T20:57:47.354Z,3.83
2023-01-27T21:00:21.524Z,3.80
2023-01-27T21:02:48.440Z,3.73
2023-01-27T21:05:15.931Z,3.68
2023-01-27T21:07:42.642Z,3.64
2023-01-27T21:10:10.039Z,3.61
2023-01-27T21:12:36.452Z,3.56
2023-01-27T21:15:08.153Z,3.56
2023-01-27T21:17:34.741Z,3.32
2023-01-27T21:20:01.297Z,3.37
2023-01-27T21:22:27.690Z,3.49
2023-01-27T21:24:54.141Z,3.47
2023-01-27T21:27:20.563Z,3.47
2023-01-27T21:29:46.914Z,3.47
2023-01-27T21:32:13.433Z,3.43
2023-01-27T21:34:39.825Z,3.45
2023-01-27T21:37:06.198Z,3.46
2023-01-27T21:39:32.677Z,3.47
2023-01-27T21:41:59.042Z,3.50
2023-01-27T21:44:46.828Z,3.52
2023-01-27T21:47:15.927Z,3.58
2023-01-27T21:50:02.633Z,3.61
2023-01-27T21:52:34.102Z,3.65
2023-01-27T21:55:02.643Z,3.60
2023-01-27T21:57:29.596Z,3.58
2023-01-27T21:59:56.160Z,3.58
2023-01-27T22:02:22.915Z,3.77
2023-01-27T22:04:49.460Z,3.67
2023-01-27T22:07:17.754Z,3.83
2023-01-27T22:09:44.633Z,3.85
2023-01-27T22:12:13.453Z,3.86
2023-01-27T22:14:39.949Z,3.85
2023-01-27T22:17:06.887Z,3.87
2023-01-27T22:19:33.599Z,3.89
2023-01-27T22:21:59.991Z,3.89
2023-01-27T22:24:26.574Z,3.91
2023-01-27T22:26:53.001Z,3.89
2023-01-27T22:29:19.489Z,3.93
2023-01-27T22:31:46.115Z,3.81
2023-01-27T22:34:12.540Z,3.95
2023-01-27T22:36:38.950Z,3.97
2023-01-27T22:39:05.527Z,3.98
2023-01-27T22:41:32.371Z,4.00
2023-01-27T22:43:58.774Z,4.02
2023-01-27T22:46:25.235Z,4.05
2023-01-27T22:48:51.627Z,4.08
2023-01-27T22:51:18.292Z,4.12
2023-01-27T22:53:46.368Z,4.14
2023-01-27T22:56:12.774Z,4.15
2023-01-27T22:58:39.173Z,4.18
2023-01-27T23:01:06.721Z,4.20
2023-01-27T23:03:33.539Z,4.21
2023-01-27T23:06:07.248Z,4.09
2023-01-27T23:08:34.230Z,4.22
2023-01-27T23:11:02.045Z,4.19
2023-01-27T23:13:29.790Z,4.23
2023-01-27T23:15:56.323Z,4.22
2023-01-27T23:18:23.341Z,4.20
2023-01-27T23:20:50.058Z,4.21
2023-01-27T23:23:19.117Z,4.20
2023-01-27T23:25:47.509Z,4.15
2023-01-27T23:28:16.649Z,4.14
2023-01-27T23:30:44.240Z,4.16
2023-01-27T23:33:12.022Z,4.10
2023-01-27T23:35:39.261Z,4.13
2023-01-27T23:38:10.691Z,4.11
2023-01-27T23:40:43.151Z,4.08
2023-01-27T23:43:09.771Z,4.08
2023-01-27T23:45:36.236Z,4.07
2023-01-27T23:48:02.685Z,4.06
2023-01-27T23:50:29.114Z,3.99
2023-01-27T23:52:55.505Z,4.01
2023-01-27T23:55:23.060Z,3.99
2023-01-27T23:57:49.572Z,3.94
